createdAt,value
2018-12-20T00:00:44.904Z,-0.64
2018-12-20T00:03:13.273Z,-0.69
2018-12-20T00:05:41.622Z,-0.64
2018-12-20T00:08:10.054Z,-0.59
2018-12-20T00:10:38.383Z,-0.53
2018-12-20T00:13:06.741Z,-0.49
2018-12-20T00:15:35.041Z,-0.49
2018-12-20T00:18:03.401Z,-0.45
2018-12-20T00:20:31.689Z,-0.36
2018-12-20T00:23:00.200Z,-0.34
2018-12-20T00:28:06.786Z,-0.30
2018-12-20T00:30:35.187Z,-0.22
2018-12-20T00:33:03.570Z,-0.13
2018-12-20T00:35:31.853Z,-0.20
2018-12-20T00:38:00.374Z,-0.25
2018-12-20T00:40:28.730Z,-0.25
2018-12-20T00:42:57.082Z,-0.11
2018-12-20T00:45:25.467Z,-0.06
2018-12-20T00:47:53.746Z,-0.13
2018-12-20T00:50:22.041Z,-0.04
2018-12-20T00:52:50.458Z,0.02
2018-12-20T00:55:18.948Z,0.28
2018-12-20T00:57:47.388Z,0.12
2018-12-20T01:00:15.718Z,0.10
2018-12-20T01:02:44.325Z,0.11
2018-12-20T01:05:12.664Z,0.22
2018-12-20T01:07:41.122Z,0.29
2018-12-20T01:10:09.829Z,0.23
2018-12-20T01:12:38.960Z,0.31
2018-12-20T01:15:07.436Z,0.34
2018-12-20T01:17:38.763Z,0.34
2018-12-20T01:20:09.247Z,0.30
2018-12-20T01:22:37.639Z,0.54
2018-12-20T01:25:07.444Z,0.80
2018-12-20T01:27:35.931Z,0.65
2018-12-20T01:30:05.504Z,0.82
2018-12-20T01:32:33.987Z,0.79
2018-12-20T01:35:02.458Z,0.84
2018-12-20T01:37:30.797Z,1.17
2018-12-20T01:39:59.118Z,0.93
2018-12-20T01:45:05.773Z,1.42
2018-12-20T01:47:34.165Z,1.57
2018-12-20T01:50:02.587Z,1.42
2018-12-20T01:52:30.844Z,1.56
2018-12-20T01:54:59.113Z,1.55
2018-12-20T01:57:27.424Z,1.52
2018-12-20T01:59:55.739Z,1.50
2018-12-20T02:02:25.433Z,1.11
2018-12-20T02:04:53.939Z,1.14
2018-12-20T02:07:22.342Z,1.49
2018-12-20T02:09:50.792Z,1.47
2018-12-20T02:12:19.259Z,1.18
2018-12-20T02:14:47.504Z,1.08
2018-12-20T02:17:15.775Z,1.45
2018-12-20T02:19:44.086Z,1.17
2018-12-20T02:24:50.641Z,1.67
2018-12-20T02:27:19.173Z,1.61
2018-12-20T02:29:47.536Z,1.21
2018-12-20T02:32:15.835Z,1.07
2018-12-20T02:34:44.177Z,1.24
2018-12-20T02:37:12.604Z,1.77
2018-12-20T02:39:41.184Z,1.70
2018-12-20T02:42:09.914Z,1.39
2018-12-20T02:44:38.348Z,1.40
2018-12-20T02:47:06.651Z,1.82
2018-12-20T02:49:35.003Z,2.06
2018-12-20T02:52:03.655Z,1.69
2018-12-20T02:54:32.163Z,1.38
2018-12-20T02:57:00.622Z,1.31
2018-12-20T02:59:29.517Z,1.35
2018-12-20T03:01:57.917Z,1.64
2018-12-20T03:04:26.354Z,1.43
2018-12-20T03:06:54.755Z,1.32
2018-12-20T03:09:23.088Z,1.56
2018-12-20T03:11:51.396Z,1.90
2018-12-20T03:14:19.657Z,2.01
2018-12-20T03:16:48.055Z,2.04
2018-12-20T03:19:16.407Z,1.56
2018-12-20T03:21:44.824Z,1.91
2018-12-20T03:24:13.470Z,1.70
2018-12-20T03:26:42.098Z,1.36
2018-12-20T03:29:10.509Z,1.24
2018-12-20T03:31:39.039Z,1.17
2018-12-20T03:34:07.423Z,1.10
2018-12-20T03:36:35.679Z,1.04
2018-12-20T03:39:06.483Z,1.01
2018-12-20T03:41:34.882Z,1.20
2018-12-20T03:44:03.132Z,1.11
2018-12-20T03:46:31.492Z,1.09
2018-12-20T03:49:00.008Z,1.08
2018-12-20T03:51:28.328Z,1.18
2018-12-20T03:53:56.766Z,1.69
2018-12-20T03:56:25.563Z,1.81
2018-12-20T03:58:54.087Z,1.55
2018-12-20T04:01:22.435Z,1.30
2018-12-20T04:03:50.826Z,1.22
2018-12-20T04:06:19.192Z,1.14
2018-12-20T04:08:47.568Z,1.52
2018-12-20T04:13:54.103Z,1.37
2018-12-20T04:16:22.415Z,1.24
2018-12-20T04:18:50.849Z,1.25
2018-12-20T04:21:19.192Z,1.25
2018-12-20T04:23:47.461Z,1.22
2018-12-20T04:26:15.732Z,1.49
2018-12-20T04:28:44.340Z,1.33
2018-12-20T04:31:12.683Z,1.23
2018-12-20T04:33:41.265Z,1.23
2018-12-20T04:36:09.829Z,1.47
2018-12-20T04:38:38.447Z,1.44
2018-12-20T04:41:06.770Z,1.94
2018-12-20T04:43:35.035Z,1.69
2018-12-20T04:46:03.328Z,2.05
2018-12-20T04:48:33.143Z,2.12
2018-12-20T04:51:01.570Z,1.81
2018-12-20T04:53:29.955Z,1.66
2018-12-20T04:55:58.317Z,1.54
2018-12-20T04:58:26.710Z,1.53
2018-12-20T05:00:55.116Z,1.44
2018-12-20T05:03:23.475Z,1.73
2018-12-20T05:05:51.969Z,1.56
2018-12-20T05:08:20.295Z,1.92
2018-12-20T05:10:48.749Z,1.58
2018-12-20T05:13:17.010Z,1.40
2018-12-20T05:15:45.342Z,1.27
2018-12-20T05:18:13.680Z,1.18
2018-12-20T05:20:42.172Z,1.19
2018-12-20T05:23:10.559Z,1.18
2018-12-20T05:25:39.057Z,1.59
2018-12-20T05:28:07.397Z,1.63
2018-12-20T05:30:35.652Z,1.78
2018-12-20T05:33:03.932Z,1.98
2018-12-20T05:35:32.183Z,1.94
2018-12-20T05:38:00.503Z,1.86
2018-12-20T05:40:28.976Z,1.92
2018-12-20T05:42:57.599Z,1.84
2018-12-20T05:45:26.048Z,1.77
2018-12-20T05:47:54.420Z,1.76
2018-12-20T05:50:23.287Z,1.58
2018-12-20T05:52:51.584Z,1.39
2018-12-20T05:55:20.002Z,1.23
2018-12-20T05:57:48.517Z,1.03
2018-12-20T06:00:17.029Z,0.96
2018-12-20T06:02:45.334Z,0.82
2018-12-20T06:05:13.973Z,0.76
2018-12-20T06:07:42.367Z,0.66
2018-12-20T06:10:10.987Z,0.57
2018-12-20T06:12:39.289Z,0.53
2018-12-20T06:15:07.903Z,0.49
2018-12-20T06:17:36.425Z,0.39
2018-12-20T06:20:05.623Z,0.33
2018-12-20T06:22:33.936Z,0.29
2018-12-20T06:25:02.218Z,0.25
2018-12-20T06:27:30.496Z,0.26
2018-12-20T06:29:58.793Z,0.60
2018-12-20T06:32:27.051Z,0.76
2018-12-20T06:34:55.360Z,0.87
2018-12-20T06:37:23.661Z,0.82
2018-12-20T06:39:51.905Z,0.82
2018-12-20T06:42:20.216Z,0.65
2018-12-20T06:44:48.469Z,0.32
2018-12-20T06:47:16.784Z,0.75
2018-12-20T06:49:45.062Z,0.63
2018-12-20T06:52:13.556Z,0.54
2018-12-20T06:54:41.814Z,0.60
2018-12-20T06:57:10.101Z,0.72
2018-12-20T06:59:38.463Z,0.53
2018-12-20T07:02:06.727Z,0.52
2018-12-20T07:04:35.022Z,0.72
2018-12-20T07:07:03.290Z,0.71
2018-12-20T07:09:31.840Z,0.88
2018-12-20T07:12:00.085Z,0.71
2018-12-20T07:14:28.359Z,0.93
2018-12-20T07:16:56.683Z,0.80
2018-12-20T07:19:25.048Z,0.81
2018-12-20T07:21:53.336Z,0.83
2018-12-20T07:24:21.647Z,1.09
2018-12-20T07:26:49.921Z,1.68
2018-12-20T07:29:18.167Z,1.72
2018-12-20T07:31:46.460Z,2.00
2018-12-20T07:34:16.247Z,1.82
2018-12-20T07:36:44.605Z,2.30
2018-12-20T07:39:12.937Z,2.53
2018-12-20T07:41:41.184Z,2.43
2018-12-20T07:44:09.457Z,2.36
2018-12-20T07:46:38.159Z,2.72
2018-12-20T07:49:06.572Z,2.63
2018-12-20T07:51:35.708Z,2.69
2018-12-20T07:54:03.980Z,2.53
2018-12-20T07:56:32.706Z,2.20
2018-12-20T07:59:01.004Z,2.11
2018-12-20T08:01:29.352Z,2.41
2018-12-20T08:03:57.762Z,2.52
2018-12-20T08:06:26.033Z,2.52
2018-12-20T08:08:54.317Z,2.67
2018-12-20T08:11:22.578Z,2.57
2018-12-20T08:13:50.840Z,2.48
2018-12-20T08:16:19.140Z,2.96
2018-12-20T08:18:47.387Z,3.31
2018-12-20T08:21:15.629Z,3.84
2018-12-20T08:23:43.948Z,3.94
2018-12-20T08:26:12.622Z,4.03
2018-12-20T08:28:40.916Z,5.36
2018-12-20T08:31:09.181Z,5.96
2018-12-20T08:33:37.420Z,6.36
2018-12-20T08:36:05.706Z,7.53
2018-12-20T08:38:33.952Z,8.49
2018-12-20T08:41:02.551Z,10.38
2018-12-20T08:43:30.831Z,13.01
2018-12-20T08:45:59.259Z,12.07
2018-12-20T08:48:27.584Z,9.28
2018-12-20T08:50:56.132Z,6.51
2018-12-20T08:53:24.399Z,5.64
2018-12-20T08:55:52.679Z,5.82
2018-12-20T08:58:20.938Z,6.83
2018-12-20T09:00:49.209Z,9.03
2018-12-20T09:03:17.476Z,10.46
2018-12-20T09:05:45.725Z,10.12
2018-12-20T09:08:14.124Z,8.77
2018-12-20T09:10:42.425Z,9.37
2018-12-20T09:13:10.671Z,9.73
2018-12-20T09:15:38.987Z,9.07
2018-12-20T09:18:07.299Z,8.25
2018-12-20T09:20:35.558Z,7.90
2018-12-20T09:23:03.847Z,7.49
2018-12-20T09:25:32.137Z,6.72
2018-12-20T09:28:00.385Z,6.72
2018-12-20T09:30:30.548Z,7.20
2018-12-20T09:32:58.985Z,9.11
2018-12-20T09:35:27.219Z,10.26
2018-12-20T09:37:55.714Z,9.12
2018-12-20T09:40:23.978Z,7.82
2018-12-20T09:42:52.286Z,7.38
2018-12-20T09:45:20.725Z,7.23
2018-12-20T09:47:53.778Z,5.92
2018-12-20T09:50:22.019Z,6.65
2018-12-20T09:52:50.313Z,7.13
2018-12-20T09:55:18.618Z,6.26
2018-12-20T09:57:46.868Z,5.58
2018-12-20T10:00:15.121Z,5.58
2018-12-20T10:02:43.368Z,6.22
2018-12-20T10:05:11.685Z,5.93
2018-12-20T10:07:39.968Z,6.61
2018-12-20T10:10:08.357Z,6.59
2018-12-20T10:12:36.635Z,7.65
2018-12-20T10:15:06.733Z,8.03
2018-12-20T10:17:35.258Z,7.71
2018-12-20T10:20:04.004Z,7.40
2018-12-20T10:22:32.369Z,6.68
2018-12-20T10:25:00.653Z,6.82
2018-12-20T10:27:31.506Z,6.27
2018-12-20T10:29:59.295Z,6.50
2018-12-20T10:32:27.628Z,7.20
2018-12-20T10:34:55.922Z,7.57
2018-12-20T10:37:24.436Z,7.12
2018-12-20T10:39:52.689Z,7.61
2018-12-20T10:42:21.002Z,7.22
2018-12-20T10:44:49.413Z,6.72
2018-12-20T10:47:28.815Z,6.67
2018-12-20T10:49:54.621Z,6.77
2018-12-20T10:52:22.907Z,7.02
2018-12-20T10:54:51.157Z,6.75
2018-12-20T10:57:19.455Z,6.27
2018-12-20T10:59:47.796Z,6.68
2018-12-20T11:02:22.696Z,7.13
2018-12-20T11:04:56.368Z,7.11
2018-12-20T11:07:29.995Z,7.30
2018-12-20T11:10:03.683Z,7.11
2018-12-20T11:12:37.357Z,8.37
2018-12-20T11:15:07.087Z,10.41
2018-12-20T11:17:37.485Z,10.58
2018-12-20T11:20:06.664Z,11.19
2018-12-20T11:22:34.953Z,10.18
2018-12-20T11:25:03.275Z,10.61
2018-12-20T11:27:31.752Z,11.44
2018-12-20T11:29:59.999Z,8.94
2018-12-20T11:32:28.251Z,9.90
2018-12-20T11:34:56.548Z,12.82
2018-12-20T11:37:24.849Z,13.50
2018-12-20T11:39:59.510Z,12.94
2018-12-20T11:42:23.516Z,12.94
2018-12-20T11:44:51.771Z,12.52
2018-12-20T11:47:25.485Z,14.20
2018-12-20T11:49:53.774Z,12.70
2018-12-20T11:52:22.165Z,11.82
2018-12-20T11:54:50.513Z,12.33
2018-12-20T11:57:18.916Z,12.06
2018-12-20T11:59:47.208Z,12.83
2018-12-20T12:02:15.486Z,12.05
2018-12-20T12:04:43.741Z,12.30
2018-12-20T12:07:11.997Z,10.25
2018-12-20T12:09:40.340Z,10.67
2018-12-20T12:12:08.618Z,11.00
2018-12-20T12:14:36.870Z,11.88
2018-12-20T12:17:05.195Z,10.89
2018-12-20T12:19:33.510Z,11.58
2018-12-20T12:22:01.784Z,13.04
2018-12-20T12:24:30.072Z,11.66
2018-12-20T12:26:58.329Z,12.39
2018-12-20T12:29:26.590Z,13.76
2018-12-20T12:31:54.877Z,11.77
2018-12-20T12:34:23.145Z,11.50
2018-12-20T12:36:51.395Z,12.04
2018-12-20T12:39:19.732Z,12.40
2018-12-20T12:41:48.012Z,12.22
2018-12-20T12:46:54.524Z,12.66
2018-12-20T12:49:24.105Z,13.78
2018-12-20T12:51:53.385Z,12.15
2018-12-20T12:54:21.937Z,11.96
2018-12-20T12:56:50.253Z,12.83
2018-12-20T12:59:18.595Z,12.45
2018-12-20T13:01:46.904Z,11.82
2018-12-20T13:04:15.261Z,12.46
2018-12-20T13:06:43.643Z,11.72
2018-12-20T13:09:12.033Z,11.37
2018-12-20T13:11:40.319Z,11.79
2018-12-20T13:14:08.621Z,11.36
2018-12-20T13:16:36.947Z,11.57
2018-12-20T13:19:05.208Z,11.59
2018-12-20T13:21:33.520Z,11.67
2018-12-20T13:24:01.835Z,12.17
2018-12-20T13:26:30.259Z,12.28
2018-12-20T13:28:58.520Z,12.36
2018-12-20T13:31:26.773Z,11.52
2018-12-20T13:33:55.125Z,11.55
2018-12-20T13:36:23.463Z,11.38
2018-12-20T13:38:51.778Z,12.15
2018-12-20T13:41:20.065Z,11.61
2018-12-20T13:43:48.371Z,11.45
2018-12-20T13:46:17.958Z,11.76
2018-12-20T13:48:46.248Z,12.68
2018-12-20T13:51:14.629Z,11.57
2018-12-20T13:53:43.183Z,11.21
2018-12-20T13:56:11.460Z,11.75
2018-12-20T14:01:18.063Z,10.61
2018-12-20T14:03:46.394Z,9.80
2018-12-20T14:06:14.734Z,10.52
2018-12-20T14:08:43.070Z,10.53
2018-12-20T14:11:11.332Z,9.59
2018-12-20T14:13:39.583Z,9.43
2018-12-20T14:16:07.873Z,9.51
2018-12-20T14:18:36.130Z,9.13
2018-12-20T14:21:04.719Z,8.29
2018-12-20T14:23:32.993Z,7.74
2018-12-20T14:26:01.244Z,7.67
2018-12-20T14:28:29.518Z,7.57
2018-12-20T14:30:58.120Z,7.28
2018-12-20T14:33:26.404Z,6.85
2018-12-20T14:35:54.658Z,6.66
2018-12-20T14:38:22.976Z,6.66
2018-12-20T14:40:51.297Z,6.34
2018-12-20T14:43:19.527Z,6.39
2018-12-20T14:45:47.993Z,6.05
2018-12-20T14:50:58.649Z,5.92
2018-12-20T14:53:26.910Z,6.03
2018-12-20T14:55:55.181Z,5.54
2018-12-20T14:58:23.433Z,5.60
2018-12-20T15:00:51.693Z,5.37
2018-12-20T15:03:19.966Z,5.55
2018-12-20T15:05:48.236Z,5.43
2018-12-20T15:08:17.465Z,5.20
2018-12-20T15:10:45.716Z,5.15
2018-12-20T15:13:13.995Z,4.91
2018-12-20T15:15:42.325Z,5.05
2018-12-20T15:18:10.560Z,4.65
2018-12-20T15:20:40.681Z,4.81
2018-12-20T15:23:09.081Z,4.47
2018-12-20T15:25:37.444Z,4.20
2018-12-20T15:28:05.832Z,4.01
2018-12-20T15:30:34.787Z,3.71
2018-12-20T15:33:03.116Z,3.49
2018-12-20T15:35:31.456Z,3.74
2018-12-20T15:37:59.817Z,3.80
2018-12-20T15:40:28.125Z,3.89
2018-12-20T15:45:34.859Z,3.61
2018-12-20T15:48:03.103Z,3.47
2018-12-20T15:50:31.360Z,3.36
2018-12-20T15:53:00.008Z,3.65
2018-12-20T15:55:29.410Z,3.43
2018-12-20T15:57:57.674Z,3.49
2018-12-20T16:00:26.007Z,3.28
2018-12-20T16:02:54.484Z,3.09
2018-12-20T16:05:22.753Z,2.95
2018-12-20T16:07:51.003Z,2.77
2018-12-20T16:10:19.292Z,2.57
2018-12-20T16:12:47.597Z,2.42
2018-12-20T16:15:15.900Z,2.36
2018-12-20T16:17:44.327Z,2.25
2018-12-20T16:20:12.678Z,2.15
2018-12-20T16:22:40.916Z,2.52
2018-12-20T16:25:09.269Z,2.75
2018-12-20T16:27:37.515Z,3.31
2018-12-20T16:30:09.587Z,3.40
2018-12-20T16:32:37.852Z,3.39
2018-12-20T16:35:07.584Z,2.91
2018-12-20T16:37:35.828Z,2.71
2018-12-20T16:40:05.702Z,2.31
2018-12-20T16:42:33.975Z,2.02
2018-12-20T16:45:02.259Z,1.75
2018-12-20T16:47:30.544Z,1.56
2018-12-20T16:49:58.824Z,1.30
2018-12-20T16:52:27.096Z,1.33
2018-12-20T16:54:55.627Z,1.09
2018-12-20T16:57:24.163Z,0.97
2018-12-20T16:59:53.364Z,0.82
2018-12-20T17:02:21.607Z,0.78
2018-12-20T17:04:49.975Z,0.72
2018-12-20T17:07:18.213Z,0.61
2018-12-20T17:09:46.488Z,0.47
2018-12-20T17:12:14.767Z,0.43
2018-12-20T17:14:43.091Z,0.42
2018-12-20T17:17:11.373Z,0.42
2018-12-20T17:19:39.742Z,0.42
2018-12-20T17:22:08.108Z,0.44
2018-12-20T17:24:36.421Z,0.91
2018-12-20T17:27:04.755Z,0.62
2018-12-20T17:29:33.035Z,0.69
2018-12-20T17:32:01.457Z,0.72
2018-12-20T17:34:29.697Z,0.93
2018-12-20T17:36:57.999Z,0.86
2018-12-20T17:39:26.294Z,0.67
2018-12-20T17:41:54.564Z,0.76
2018-12-20T17:44:22.812Z,0.81
2018-12-20T17:46:51.162Z,0.73
2018-12-20T17:49:19.412Z,0.67
2018-12-20T17:51:47.648Z,0.49
2018-12-20T17:54:15.924Z,0.65
2018-12-20T17:56:44.195Z,1.29
2018-12-20T17:59:12.597Z,1.57
2018-12-20T18:01:40.829Z,1.46
2018-12-20T18:04:09.114Z,1.51
2018-12-20T18:06:37.384Z,2.07
2018-12-20T18:09:08.789Z,2.13
2018-12-20T18:11:37.380Z,1.98
2018-12-20T18:14:05.672Z,1.54
2018-12-20T18:16:34.108Z,1.27
2018-12-20T18:19:02.350Z,1.23
2018-12-20T18:21:30.761Z,1.14
2018-12-20T18:23:59.452Z,1.33
2018-12-20T18:26:28.156Z,1.47
2018-12-20T18:28:56.803Z,1.27
2018-12-20T18:31:25.545Z,1.30
2018-12-20T18:33:54.313Z,1.37
2018-12-20T18:36:23.100Z,1.34
2018-12-20T18:38:52.101Z,1.54
2018-12-20T18:41:20.793Z,1.50
2018-12-20T18:43:49.559Z,1.32
2018-12-20T18:46:18.075Z,1.47
2018-12-20T18:48:46.351Z,1.27
2018-12-20T18:51:14.687Z,1.12
2018-12-20T18:53:42.976Z,1.02
2018-12-20T18:56:11.278Z,0.89
2018-12-20T18:58:39.725Z,1.14
2018-12-20T19:01:08.080Z,1.47
2018-12-20T19:03:36.376Z,1.66
2018-12-20T19:06:04.737Z,1.30
2018-12-20T19:08:33.023Z,1.02
2018-12-20T19:11:01.321Z,0.79
2018-12-20T19:13:29.665Z,0.66
2018-12-20T19:15:57.964Z,0.55
2018-12-20T19:18:26.202Z,0.39
2018-12-20T19:20:54.453Z,0.34
2018-12-20T19:23:22.821Z,0.49
2018-12-20T19:25:51.208Z,0.65
2018-12-20T19:28:19.520Z,0.82
2018-12-20T19:30:47.801Z,1.06
2018-12-20T19:33:16.066Z,1.16
2018-12-20T19:35:45.640Z,1.07
2018-12-20T19:38:20.488Z,1.00
2018-12-20T19:40:44.951Z,0.89
2018-12-20T19:43:13.377Z,0.80
2018-12-20T19:45:45.995Z,0.81
2018-12-20T19:48:12.485Z,0.98
2018-12-20T19:50:41.168Z,1.02
2018-12-20T19:53:09.904Z,0.96
2018-12-20T19:55:38.620Z,0.86
2018-12-20T19:58:07.579Z,0.79
2018-12-20T20:00:36.352Z,0.76
2018-12-20T20:03:05.064Z,0.68
2018-12-20T20:05:34.068Z,0.54
2018-12-20T20:08:02.772Z,0.41
2018-12-20T20:10:31.415Z,0.33
2018-12-20T20:13:00.160Z,0.23
2018-12-20T20:15:28.840Z,0.05
2018-12-20T20:17:57.573Z,0.09
2018-12-20T20:20:26.267Z,0.38
2018-12-20T20:22:54.971Z,0.95
2018-12-20T20:25:24.711Z,1.02
2018-12-20T20:27:53.380Z,1.11
2018-12-20T20:30:21.836Z,1.09
2018-12-20T20:32:50.128Z,1.30
2018-12-20T20:35:18.400Z,1.91
2018-12-20T20:37:46.824Z,2.41
2018-12-20T20:40:15.128Z,2.75
2018-12-20T20:42:44.709Z,2.87
2018-12-20T20:45:13.062Z,2.95
2018-12-20T20:47:41.509Z,3.13
2018-12-20T20:50:09.859Z,3.41
2018-12-20T20:52:38.124Z,3.57
2018-12-20T20:55:07.229Z,3.56
2018-12-20T20:57:35.550Z,3.49
2018-12-20T21:00:07.464Z,3.06
2018-12-20T21:02:35.744Z,2.48
2018-12-20T21:05:07.023Z,1.85
2018-12-20T21:07:35.319Z,2.04
2018-12-20T21:10:04.896Z,2.21
2018-12-20T21:12:33.220Z,2.14
2018-12-20T21:15:01.549Z,2.27
2018-12-20T21:17:29.861Z,2.11
2018-12-20T21:19:58.128Z,2.20
2018-12-20T21:22:26.373Z,2.17
2018-12-20T21:24:54.876Z,2.15
2018-12-20T21:27:23.183Z,2.05
2018-12-20T21:29:51.444Z,1.97
2018-12-20T21:32:19.723Z,1.98
2018-12-20T21:34:48.172Z,1.96
2018-12-20T21:37:16.419Z,2.17
2018-12-20T21:39:44.655Z,2.11
2018-12-20T21:42:12.939Z,1.89
2018-12-20T21:44:41.225Z,1.56
2018-12-20T21:47:09.672Z,1.39
2018-12-20T21:49:37.959Z,1.98
2018-12-20T21:52:06.305Z,1.90
2018-12-20T21:54:34.707Z,1.66
2018-12-20T21:57:03.056Z,1.43
2018-12-20T21:59:31.607Z,1.35
2018-12-20T22:01:59.852Z,1.88
2018-12-20T22:04:28.099Z,2.00
2018-12-20T22:06:56.393Z,1.78
2018-12-20T22:09:24.632Z,1.92
2018-12-20T22:11:52.938Z,1.99
2018-12-20T22:14:21.199Z,2.00
2018-12-20T22:16:49.491Z,1.79
2018-12-20T22:19:17.770Z,1.70
2018-12-20T22:21:46.026Z,1.42
2018-12-20T22:24:14.303Z,1.68
2018-12-20T22:26:42.603Z,1.68
2018-12-20T22:29:10.874Z,1.37
2018-12-20T22:31:39.244Z,1.38
2018-12-20T22:34:07.542Z,1.32
2018-12-20T22:36:35.807Z,1.13
2018-12-20T22:39:06.441Z,0.82
2018-12-20T22:41:34.811Z,0.69
2018-12-20T22:44:03.143Z,0.59
2018-12-20T22:46:31.376Z,0.33
2018-12-20T22:48:59.648Z,0.24
2018-12-20T22:51:27.893Z,0.21
2018-12-20T22:53:56.177Z,0.47
2018-12-20T22:56:24.442Z,0.20
2018-12-20T22:58:52.725Z,-0.06
2018-12-20T23:01:20.976Z,-0.02
2018-12-20T23:03:49.256Z,-0.31
2018-12-20T23:06:17.547Z,0.06
2018-12-20T23:08:45.838Z,0.12
2018-12-20T23:11:14.151Z,0.08
2018-12-20T23:13:42.481Z,0.05
2018-12-20T23:16:10.732Z,-0.36
2018-12-20T23:18:39.052Z,-0.43
2018-12-20T23:21:07.316Z,-0.32
2018-12-20T23:23:35.587Z,-0.10
2018-12-20T23:26:03.937Z,0.00
2018-12-20T23:28:32.277Z,0.04
2018-12-20T23:31:00.540Z,0.16
2018-12-20T23:33:29.045Z,0.20
2018-12-20T23:35:57.343Z,0.21
2018-12-20T23:38:25.578Z,0.27
2018-12-20T23:40:53.897Z,0.19
2018-12-20T23:43:22.213Z,0.05
2018-12-20T23:45:50.474Z,-0.01
2018-12-20T23:48:18.723Z,-0.08
2018-12-20T23:50:47.021Z,-0.20
2018-12-20T23:53:15.303Z,-0.21
2018-12-20T23:55:43.599Z,-0.24
2018-12-20T23:58:11.856Z,0.03
